createdAt,value
2017-03-31T00:00:21.775Z,11.39
2017-03-31T00:01:32.758Z,11.33
2017-03-31T00:02:43.803Z,11.34
2017-03-31T00:03:54.795Z,11.38
2017-03-31T00:05:05.784Z,11.35
2017-03-31T00:06:16.779Z,11.38
2017-03-31T00:07:27.966Z,11.34
2017-03-31T00:08:38.952Z,11.33
2017-03-31T00:09:49.940Z,11.2
2017-03-31T00:11:00.915Z,11.26
2017-03-31T00:12:11.902Z,11.24
2017-03-31T00:13:23.335Z,11.23
2017-03-31T00:14:34.536Z,11.12
2017-03-31T00:15:45.717Z,11.09
2017-03-31T00:16:56.711Z,11.03
2017-03-31T00:18:07.693Z,11.08
2017-03-31T00:19:18.667Z,11.09
2017-03-31T00:20:29.654Z,11.03
2017-03-31T00:21:40.640Z,11.05
2017-03-31T00:22:51.629Z,11.05
2017-03-31T00:24:02.664Z,11.08
2017-03-31T00:25:13.651Z,11.08
2017-03-31T00:26:25.049Z,11.02
2017-03-31T00:27:36.042Z,11.02
2017-03-31T00:28:47.027Z,11.05
2017-03-31T00:29:58.011Z,11.13
2017-03-31T00:31:08.996Z,10.95
2017-03-31T00:32:19.988Z,11.06
2017-03-31T00:33:30.979Z,11.06
2017-03-31T00:34:41.959Z,10.94
2017-03-31T00:35:52.950Z,10.94
2017-03-31T00:37:03.939Z,10.9
2017-03-31T00:38:15.137Z,10.95
2017-03-31T00:39:26.130Z,10.87
2017-03-31T00:40:37.371Z,10.83
2017-03-31T00:41:48.362Z,10.79
2017-03-31T00:42:59.356Z,10.79
2017-03-31T00:44:10.341Z,10.77
2017-03-31T00:45:21.331Z,10.79
2017-03-31T00:46:32.325Z,10.79
2017-03-31T00:47:43.307Z,10.77
2017-03-31T00:48:54.499Z,10.73
2017-03-31T00:50:05.534Z,10.77
2017-03-31T00:51:16.532Z,10.79
2017-03-31T00:52:27.521Z,10.73
2017-03-31T00:53:38.503Z,10.73
2017-03-31T00:54:49.697Z,10.79
2017-03-31T00:56:00.685Z,10.75
2017-03-31T00:57:11.678Z,10.73
2017-03-31T00:58:22.674Z,10.77
2017-03-31T00:59:33.863Z,10.73
2017-03-31T01:00:44.903Z,10.8
2017-03-31T01:01:55.881Z,10.73
2017-03-31T01:03:06.874Z,10.72
2017-03-31T01:04:17.858Z,10.72
2017-03-31T01:05:28.840Z,10.75
2017-03-31T01:06:40.229Z,10.66
2017-03-31T01:07:51.217Z,10.63
2017-03-31T01:09:02.202Z,10.65
2017-03-31T01:10:13.186Z,10.63
2017-03-31T01:11:24.381Z,10.65
2017-03-31T01:12:35.369Z,10.63
2017-03-31T01:13:46.358Z,10.55
2017-03-31T01:14:57.346Z,10.66
2017-03-31T01:16:08.329Z,10.65
2017-03-31T01:17:19.396Z,10.63
2017-03-31T01:18:30.379Z,10.66
2017-03-31T01:19:41.775Z,10.61
2017-03-31T01:20:52.975Z,10.66
2017-03-31T01:22:03.977Z,10.65
2017-03-31T01:23:14.983Z,10.66
2017-03-31T01:24:25.961Z,10.7
2017-03-31T01:25:36.946Z,10.69
2017-03-31T01:26:47.986Z,10.61
2017-03-31T01:27:58.976Z,10.63
2017-03-31T01:29:09.966Z,10.61
2017-03-31T01:30:20.971Z,10.65
2017-03-31T01:31:31.958Z,10.69
2017-03-31T01:32:42.951Z,10.63
2017-03-31T01:33:53.934Z,10.66
2017-03-31T01:35:04.925Z,10.57
2017-03-31T01:36:15.919Z,10.61
2017-03-31T01:37:27.171Z,10.61
2017-03-31T01:38:38.150Z,10.59
2017-03-31T01:39:49.343Z,10.61
2017-03-31T01:41:00.329Z,10.63
2017-03-31T01:42:11.339Z,10.61
2017-03-31T01:43:22.526Z,10.72
2017-03-31T01:44:33.552Z,10.65
2017-03-31T01:45:44.537Z,10.61
2017-03-31T01:46:55.533Z,10.66
2017-03-31T01:48:06.526Z,10.65
2017-03-31T01:49:17.525Z,10.66
2017-03-31T01:50:28.547Z,10.66
2017-03-31T01:51:39.534Z,10.59
2017-03-31T01:52:50.518Z,10.65
2017-03-31T01:54:01.506Z,10.59
2017-03-31T01:55:12.500Z,10.59
2017-03-31T01:56:23.484Z,10.59
2017-03-31T01:57:34.511Z,10.58
2017-03-31T01:58:45.545Z,10.58
2017-03-31T01:59:56.531Z,10.58
2017-03-31T02:01:07.517Z,10.49
2017-03-31T02:02:18.508Z,10.49
2017-03-31T02:03:29.503Z,10.44
2017-03-31T02:04:40.684Z,10.42
2017-03-31T02:05:51.672Z,10.41
2017-03-31T02:07:02.654Z,10.41
2017-03-31T02:08:13.638Z,10.46
2017-03-31T02:09:24.879Z,10.42
2017-03-31T02:10:35.878Z,10.41
2017-03-31T02:11:46.870Z,10.44
2017-03-31T02:12:58.048Z,10.42
2017-03-31T02:14:09.037Z,10.42
2017-03-31T02:15:20.019Z,10.44
2017-03-31T02:16:31.407Z,10.38
2017-03-31T02:17:42.394Z,10.31
2017-03-31T02:18:53.385Z,10.33
2017-03-31T02:20:04.620Z,10.35
2017-03-31T02:21:15.813Z,10.31
2017-03-31T02:22:26.794Z,10.32
2017-03-31T02:23:37.812Z,10.35
2017-03-31T02:24:48.993Z,10.33
2017-03-31T02:25:59.973Z,10.23
2017-03-31T02:27:11.165Z,10.31
2017-03-31T02:28:22.154Z,10.33
2017-03-31T02:29:33.152Z,10.31
2017-03-31T02:30:44.145Z,10.31
2017-03-31T02:31:55.139Z,10.29
2017-03-31T02:33:06.121Z,10.31
2017-03-31T02:34:17.105Z,10.25
2017-03-31T02:35:28.122Z,10.26
2017-03-31T02:36:39.170Z,10.32
2017-03-31T02:37:50.193Z,10.26
2017-03-31T02:39:01.399Z,10.25
2017-03-31T02:40:12.384Z,10.17
2017-03-31T02:41:23.380Z,10.14
2017-03-31T02:42:34.560Z,10.15
2017-03-31T02:43:45.743Z,10.11
2017-03-31T02:44:56.745Z,10.13
2017-03-31T02:46:07.728Z,10.13
2017-03-31T02:47:18.803Z,10.08
2017-03-31T02:48:30.198Z,10.05
2017-03-31T02:49:41.180Z,10.08
2017-03-31T02:50:52.167Z,9.99
2017-03-31T02:52:03.345Z,9.98
2017-03-31T02:53:14.336Z,9.98
2017-03-31T02:54:25.313Z,9.99
2017-03-31T02:55:36.309Z,9.98
2017-03-31T02:56:47.496Z,9.93
2017-03-31T02:57:58.537Z,9.85
2017-03-31T02:59:09.516Z,9.85
2017-03-31T03:00:20.493Z,9.89
2017-03-31T03:01:31.471Z,9.78
2017-03-31T03:02:42.459Z,9.8
2017-03-31T03:03:53.450Z,9.75
2017-03-31T03:05:04.444Z,9.8
2017-03-31T03:06:15.461Z,9.74
2017-03-31T03:07:26.644Z,9.77
2017-03-31T03:08:37.836Z,9.75
2017-03-31T03:09:49.426Z,9.64
2017-03-31T03:11:00.621Z,9.67
2017-03-31T03:12:11.615Z,9.67
2017-03-31T03:13:22.601Z,9.72
2017-03-31T03:14:33.675Z,9.7
2017-03-31T03:15:44.861Z,9.7
2017-03-31T03:16:55.845Z,9.7
2017-03-31T03:18:06.831Z,9.72
2017-03-31T03:19:17.837Z,9.67
2017-03-31T03:20:28.862Z,9.67
2017-03-31T03:21:39.844Z,9.67
2017-03-31T03:22:50.828Z,9.59
2017-03-31T03:24:02.024Z,9.63
2017-03-31T03:25:13.060Z,9.57
2017-03-31T03:26:24.049Z,9.52
2017-03-31T03:27:35.277Z,9.52
2017-03-31T03:28:46.259Z,9.47
2017-03-31T03:29:57.229Z,9.52
2017-03-31T03:31:08.210Z,9.44
2017-03-31T03:32:19.185Z,9.38
2017-03-31T03:33:30.368Z,9.41
2017-03-31T03:34:41.356Z,9.47
2017-03-31T03:35:52.390Z,9.41
2017-03-31T03:37:03.569Z,9.41
2017-03-31T03:38:14.553Z,9.45
2017-03-31T03:39:25.740Z,9.38
2017-03-31T03:40:37.124Z,9.41
2017-03-31T03:41:48.313Z,9.39
2017-03-31T03:42:59.305Z,9.27
2017-03-31T03:44:10.285Z,9.32
2017-03-31T03:45:21.277Z,9.29
2017-03-31T03:46:32.261Z,9.29
2017-03-31T03:47:43.299Z,9.19
2017-03-31T03:48:54.279Z,9.24
2017-03-31T03:50:05.465Z,9.29
2017-03-31T03:51:16.463Z,9.21
2017-03-31T03:52:27.650Z,9.11
2017-03-31T03:53:38.632Z,9.27
2017-03-31T03:54:49.611Z,9.3
2017-03-31T03:56:00.802Z,9.21
2017-03-31T03:57:11.848Z,9.2
2017-03-31T03:58:22.835Z,9.23
2017-03-31T03:59:33.818Z,9.21
2017-03-31T04:00:44.806Z,9.21
2017-03-31T04:01:55.822Z,9.2
2017-03-31T04:03:06.809Z,9.23
2017-03-31T04:04:17.791Z,9.21
2017-03-31T04:05:28.781Z,9.24
2017-03-31T04:06:39.763Z,9.14
2017-03-31T04:07:50.990Z,9.21
2017-03-31T04:09:01.967Z,9.12
2017-03-31T04:10:12.946Z,9.17
2017-03-31T04:11:23.933Z,9.16
2017-03-31T04:12:34.918Z,9.16
2017-03-31T04:13:45.904Z,9.17
2017-03-31T04:14:56.894Z,9.16
2017-03-31T04:16:07.892Z,9.14
2017-03-31T04:17:18.919Z,9.21
2017-03-31T04:18:29.901Z,9.14
2017-03-31T04:19:41.087Z,9.12
2017-03-31T04:20:52.079Z,9.17
2017-03-31T04:22:03.076Z,9.05
2017-03-31T04:23:14.071Z,9.16
2017-03-31T04:24:25.517Z,9.11
2017-03-31T04:25:36.503Z,9.12
2017-03-31T04:26:47.502Z,9.21
2017-03-31T04:27:58.687Z,9.11
2017-03-31T04:29:09.669Z,9.17
2017-03-31T04:30:20.663Z,9.09
2017-03-31T04:31:31.649Z,9.16
2017-03-31T04:32:42.843Z,9.2
2017-03-31T04:33:54.081Z,9.17
2017-03-31T04:35:05.073Z,9.14
2017-03-31T04:36:16.055Z,9.19
2017-03-31T04:37:27.046Z,9.12
2017-03-31T04:38:38.036Z,9.11
2017-03-31T04:39:49.026Z,9.16
2017-03-31T04:41:00.013Z,9.16
2017-03-31T04:42:10.996Z,9.09
2017-03-31T04:43:21.987Z,9.09
2017-03-31T04:44:33.219Z,9.09
2017-03-31T04:45:44.207Z,9.05
2017-03-31T04:46:55.189Z,9.11
2017-03-31T04:48:06.383Z,9.12
2017-03-31T04:49:17.366Z,9.01
2017-03-31T04:50:28.550Z,8.95
2017-03-31T04:51:39.738Z,9.04
2017-03-31T04:52:50.921Z,8.94
2017-03-31T04:54:01.904Z,8.98
2017-03-31T04:55:12.875Z,8.98
2017-03-31T04:56:23.860Z,8.9
2017-03-31T04:57:34.848Z,9
2017-03-31T04:58:45.832Z,9.03
2017-03-31T04:59:57.021Z,8.86
2017-03-31T05:01:08.016Z,8.94
2017-03-31T05:02:19.014Z,8.89
2017-03-31T05:03:30.005Z,8.94
2017-03-31T05:04:40.986Z,8.9
2017-03-31T05:05:52.218Z,8.87
2017-03-31T05:07:03.207Z,8.89
2017-03-31T05:08:14.397Z,8.82
2017-03-31T05:09:25.378Z,8.89
2017-03-31T05:10:36.366Z,8.94
2017-03-31T05:11:47.359Z,8.85
2017-03-31T05:12:58.342Z,8.79
2017-03-31T05:14:09.329Z,8.85
2017-03-31T05:15:20.310Z,8.87
2017-03-31T05:16:31.345Z,8.86
2017-03-31T05:17:42.335Z,8.95
2017-03-31T05:18:53.323Z,8.92
2017-03-31T05:20:04.508Z,8.94
2017-03-31T05:21:15.705Z,8.87
2017-03-31T05:22:26.697Z,8.9
2017-03-31T05:23:37.877Z,8.85
2017-03-31T05:24:48.860Z,8.87
2017-03-31T05:25:59.844Z,8.92
2017-03-31T05:27:10.887Z,8.9
2017-03-31T05:28:22.279Z,8.92
2017-03-31T05:29:33.264Z,8.89
2017-03-31T05:30:44.457Z,8.94
2017-03-31T05:31:55.449Z,8.97
2017-03-31T05:33:06.446Z,8.98
2017-03-31T05:34:17.433Z,9.04
2017-03-31T05:35:28.426Z,9
2017-03-31T05:36:39.406Z,9.05
2017-03-31T05:37:50.386Z,9.14
2017-03-31T05:39:01.578Z,9.16
2017-03-31T05:40:12.576Z,9.04
2017-03-31T05:41:23.771Z,9.2
2017-03-31T05:42:34.819Z,9.14
2017-03-31T05:43:46.008Z,9.2
2017-03-31T05:44:56.994Z,9.3
2017-03-31T05:46:07.988Z,9.32
2017-03-31T05:47:18.982Z,9.35
2017-03-31T05:48:30.175Z,9.45
2017-03-31T05:49:41.359Z,9.44
2017-03-31T05:50:52.337Z,9.56
2017-03-31T05:52:03.526Z,9.5
2017-03-31T05:53:14.966Z,9.57
2017-03-31T05:54:25.959Z,9.62
2017-03-31T05:55:36.952Z,9.71
2017-03-31T05:56:47.936Z,9.64
2017-03-31T05:57:58.922Z,9.75
2017-03-31T05:59:10.116Z,9.75
2017-03-31T06:00:21.298Z,9.89
2017-03-31T06:01:32.491Z,9.82
2017-03-31T06:02:43.484Z,9.95
2017-03-31T06:03:54.717Z,10.08
2017-03-31T06:05:05.696Z,10.14
2017-03-31T06:06:16.698Z,10.25
2017-03-31T06:07:27.682Z,10.26
2017-03-31T06:08:38.867Z,10.39
2017-03-31T06:09:49.854Z,10.39
2017-03-31T06:11:00.840Z,10.38
2017-03-31T06:12:12.028Z,10.57
2017-03-31T06:13:23.029Z,10.72
2017-03-31T06:14:34.018Z,10.79
2017-03-31T06:15:45.007Z,10.8
2017-03-31T06:16:56.004Z,10.97
2017-03-31T06:18:07.196Z,11
2017-03-31T06:19:18.246Z,11.13
2017-03-31T06:20:29.240Z,11.12
2017-03-31T06:21:40.430Z,11.13
2017-03-31T06:22:51.629Z,11.26
2017-03-31T06:24:02.818Z,11.39
2017-03-31T06:25:13.810Z,11.48
2017-03-31T06:26:24.798Z,11.53
2017-03-31T06:27:35.791Z,11.71
2017-03-31T06:28:46.994Z,11.79
2017-03-31T06:29:57.978Z,12.05
2017-03-31T06:31:08.971Z,12.2
2017-03-31T06:32:20.169Z,12.31
2017-03-31T06:33:31.157Z,12.4
2017-03-31T06:34:42.339Z,12.43
2017-03-31T06:35:53.787Z,12.59
2017-03-31T06:37:04.783Z,12.61
2017-03-31T06:38:16.187Z,12.7
2017-03-31T06:39:27.379Z,12.71
2017-03-31T06:40:38.379Z,12.83
2017-03-31T06:41:49.361Z,12.89
2017-03-31T06:43:00.361Z,12.81
2017-03-31T06:44:11.349Z,12.96
2017-03-31T06:45:22.779Z,12.98
2017-03-31T06:46:33.982Z,13.07
2017-03-31T06:47:45.369Z,13.16
2017-03-31T06:48:56.352Z,13.25
2017-03-31T06:50:07.351Z,13.4
2017-03-31T06:51:18.352Z,13.54
2017-03-31T06:52:29.342Z,13.73
2017-03-31T06:53:40.331Z,13.88
2017-03-31T06:54:51.324Z,14.19
2017-03-31T06:56:02.530Z,14.42
2017-03-31T06:57:13.923Z,14.69
2017-03-31T06:58:24.922Z,14.83
2017-03-31T06:59:35.927Z,15.1
2017-03-31T07:00:47.119Z,15.34
2017-03-31T07:01:58.118Z,15.52
2017-03-31T07:03:09.323Z,15.86
2017-03-31T07:04:20.519Z,15.96
2017-03-31T07:05:31.516Z,16.11
2017-03-31T07:06:42.510Z,16.4
2017-03-31T07:07:53.509Z,16.49
2017-03-31T07:09:04.711Z,16.69
2017-03-31T07:10:15.709Z,16.95
2017-03-31T07:11:26.708Z,17.22
2017-03-31T07:12:37.693Z,17.47
2017-03-31T07:13:48.882Z,17.66
2017-03-31T07:14:59.892Z,17.71
2017-03-31T07:16:10.940Z,17.92
2017-03-31T07:17:21.954Z,18.08
2017-03-31T07:18:32.955Z,18.19
2017-03-31T07:19:43.963Z,18.08
2017-03-31T07:20:55.173Z,18.14
2017-03-31T07:22:06.172Z,18.23
2017-03-31T07:23:17.177Z,18.34
2017-03-31T07:24:28.192Z,18.44
2017-03-31T07:25:39.197Z,18.57
2017-03-31T07:26:50.223Z,18.79
2017-03-31T07:28:01.230Z,19.02
2017-03-31T07:29:12.230Z,19.05
2017-03-31T07:30:23.234Z,19.17
2017-03-31T07:31:34.231Z,19.52
2017-03-31T07:32:45.691Z,19.78
2017-03-31T07:33:56.892Z,19.98
2017-03-31T07:35:07.896Z,20.27
2017-03-31T07:36:18.896Z,20.56
2017-03-31T07:37:30.105Z,20.44
2017-03-31T07:38:41.311Z,20.58
2017-03-31T07:39:52.317Z,20.63
2017-03-31T07:41:03.324Z,20.75
2017-03-31T07:42:14.337Z,20.76
2017-03-31T07:43:25.340Z,20.76
2017-03-31T07:44:36.349Z,20.71
2017-03-31T07:45:47.551Z,20.66
2017-03-31T07:46:58.622Z,20.78
2017-03-31T07:48:09.627Z,20.81
2017-03-31T07:49:20.642Z,20.78
2017-03-31T07:50:31.655Z,20.96
2017-03-31T07:51:42.865Z,20.98
2017-03-31T07:52:53.914Z,20.94
2017-03-31T07:54:05.126Z,20.9
2017-03-31T07:55:16.130Z,21.01
2017-03-31T07:56:27.184Z,21.31
2017-03-31T07:57:38.395Z,21.38
2017-03-31T07:58:49.604Z,21.43
2017-03-31T08:00:00.613Z,21.49
2017-03-31T08:01:11.620Z,21.41
2017-03-31T08:02:22.625Z,21.56
2017-03-31T08:03:33.628Z,21.56
2017-03-31T08:04:44.643Z,21.41
2017-03-31T08:05:55.658Z,21.33
2017-03-31T08:07:06.671Z,21.33
2017-03-31T08:08:17.720Z,21.34
2017-03-31T08:09:28.724Z,21.52
2017-03-31T08:10:39.733Z,21.66
2017-03-31T08:11:50.944Z,21.67
2017-03-31T08:13:02.171Z,21.77
2017-03-31T08:14:13.384Z,21.96
2017-03-31T08:15:24.395Z,22.14
2017-03-31T08:16:35.395Z,22.42
2017-03-31T08:17:46.600Z,22.66
2017-03-31T08:18:57.600Z,22.82
2017-03-31T08:20:08.604Z,23.14
2017-03-31T08:21:19.612Z,23.19
2017-03-31T08:22:30.613Z,23.26
2017-03-31T08:23:41.867Z,23.4
2017-03-31T08:24:52.877Z,23.5
2017-03-31T08:26:03.921Z,23.55
2017-03-31T08:27:14.932Z,23.47
2017-03-31T08:28:25.943Z,23.4
2017-03-31T08:29:37.151Z,23.4
2017-03-31T08:30:48.158Z,23.24
2017-03-31T08:31:59.171Z,23.32
2017-03-31T08:33:10.440Z,23.44
2017-03-31T08:34:21.653Z,23.47
2017-03-31T08:35:32.663Z,23.63
2017-03-31T08:36:43.668Z,23.75
2017-03-31T08:37:54.681Z,23.7
2017-03-31T08:39:05.689Z,23.62
2017-03-31T08:40:16.702Z,23.77
2017-03-31T08:41:27.905Z,23.6
2017-03-31T08:42:38.922Z,23.62
2017-03-31T08:43:49.941Z,23.62
2017-03-31T08:45:00.942Z,23.71
2017-03-31T08:46:11.953Z,23.62
2017-03-31T08:47:23.166Z,23.75
2017-03-31T08:48:34.224Z,24
2017-03-31T08:49:45.244Z,24.12
2017-03-31T08:50:56.276Z,24.09
2017-03-31T08:52:07.501Z,24.02
2017-03-31T08:53:18.502Z,23.6
2017-03-31T08:54:29.511Z,23.62
2017-03-31T08:55:40.520Z,23.71
2017-03-31T08:56:51.529Z,23.94
2017-03-31T08:58:02.754Z,23.87
2017-03-31T08:59:13.811Z,23.85
2017-03-31T09:00:24.821Z,23.92
2017-03-31T09:01:35.837Z,23.82
2017-03-31T09:02:47.051Z,23.67
2017-03-31T09:03:58.053Z,23.57
2017-03-31T09:05:09.065Z,23.41
2017-03-31T09:06:20.284Z,22.99
2017-03-31T09:07:31.294Z,22.85
2017-03-31T09:08:42.500Z,22.78
2017-03-31T09:09:53.564Z,22.71
2017-03-31T09:11:04.578Z,22.81
2017-03-31T09:12:15.591Z,22.89
2017-03-31T09:13:26.600Z,23.18
2017-03-31T09:14:37.812Z,23.24
2017-03-31T09:15:48.822Z,23.24
2017-03-31T09:16:59.845Z,23.15
2017-03-31T09:18:10.860Z,22.96
2017-03-31T09:19:21.868Z,22.92
2017-03-31T09:20:32.875Z,23.04
2017-03-31T09:21:43.886Z,23.19
2017-03-31T09:22:54.885Z,23.25
2017-03-31T09:24:05.926Z,23.38
2017-03-31T09:25:16.935Z,23.42
2017-03-31T09:26:28.389Z,23.57
2017-03-31T09:27:39.400Z,23.67
2017-03-31T09:28:50.804Z,23.78
2017-03-31T09:30:01.834Z,23.77
2017-03-31T09:31:12.842Z,23.63
2017-03-31T09:32:23.849Z,23.41
2017-03-31T09:33:35.056Z,23.14
2017-03-31T09:34:46.259Z,23.12
2017-03-31T09:35:57.268Z,23.09
2017-03-31T09:37:08.335Z,23.04
2017-03-31T09:38:19.337Z,23.07
2017-03-31T09:39:30.537Z,23.09
2017-03-31T09:40:41.546Z,23.22
2017-03-31T09:41:52.561Z,23.18
2017-03-31T09:43:03.567Z,23.1
2017-03-31T09:44:14.597Z,23.35
2017-03-31T09:45:25.609Z,23.41
2017-03-31T09:46:36.625Z,23.55
2017-03-31T09:47:48.081Z,23.7
2017-03-31T09:48:59.085Z,23.94
2017-03-31T09:50:10.288Z,23.92
2017-03-31T09:51:21.339Z,23.84
2017-03-31T09:52:32.342Z,24.02
2017-03-31T09:53:43.352Z,24.11
2017-03-31T09:54:54.564Z,23.87
2017-03-31T09:56:05.570Z,23.78
2017-03-31T09:57:16.568Z,23.75
2017-03-31T09:58:27.574Z,23.82
2017-03-31T09:59:38.577Z,23.84
2017-03-31T10:00:49.592Z,23.78
2017-03-31T10:02:00.806Z,23.87
2017-03-31T10:03:11.818Z,23.99
2017-03-31T10:04:22.917Z,24.11
2017-03-31T10:05:34.121Z,24.24
2017-03-31T10:06:45.120Z,24.21
2017-03-31T10:07:56.141Z,24.32
2017-03-31T10:09:07.148Z,24.39
2017-03-31T10:10:18.162Z,24.32
2017-03-31T10:11:29.167Z,24.29
2017-03-31T10:12:40.173Z,24.37
2017-03-31T10:13:51.388Z,24.52
2017-03-31T10:15:02.441Z,24.58
2017-03-31T10:16:13.449Z,24.55
2017-03-31T10:17:24.469Z,24.32
2017-03-31T10:18:35.477Z,24.34
2017-03-31T10:19:46.487Z,24.51
2017-03-31T10:20:57.493Z,24.56
2017-03-31T10:22:08.526Z,24.64
2017-03-31T10:23:19.742Z,24.69
2017-03-31T10:24:31.151Z,24.8
2017-03-31T10:25:42.410Z,24.77
2017-03-31T10:26:53.420Z,24.67
2017-03-31T10:28:04.635Z,24.67
2017-03-31T10:29:15.849Z,24.51
2017-03-31T10:30:27.069Z,24.48
2017-03-31T10:31:38.272Z,24.33
2017-03-31T10:32:49.279Z,24.04
2017-03-31T10:34:00.284Z,24.11
2017-03-31T10:35:11.291Z,23.97
2017-03-31T10:36:22.299Z,23.85
2017-03-31T10:37:33.563Z,23.87
2017-03-31T10:38:44.575Z,24.07
2017-03-31T10:39:55.585Z,24.07
2017-03-31T10:41:06.589Z,24.09
2017-03-31T10:42:17.598Z,24.26
2017-03-31T10:43:28.602Z,24.18
2017-03-31T10:44:39.605Z,24.09
2017-03-31T10:45:50.816Z,24.18
2017-03-31T10:47:02.082Z,24.22
2017-03-31T10:48:13.287Z,24.22
2017-03-31T10:49:24.497Z,24.29
2017-03-31T10:50:35.506Z,24.32
2017-03-31T10:51:46.511Z,24.34
2017-03-31T10:52:57.522Z,24.45
2017-03-31T10:54:08.926Z,24.37
2017-03-31T10:55:19.937Z,24.08
2017-03-31T10:56:30.948Z,23.99
2017-03-31T10:57:42.401Z,23.9
2017-03-31T10:58:53.405Z,23.92
2017-03-31T11:00:04.432Z,23.9
2017-03-31T11:01:15.438Z,23.85
2017-03-31T11:02:26.451Z,23.9
2017-03-31T11:03:37.533Z,23.85
2017-03-31T11:04:48.738Z,23.78
2017-03-31T11:05:59.743Z,23.82
2017-03-31T11:07:10.743Z,23.85
2017-03-31T11:08:21.755Z,24.07
2017-03-31T11:09:32.760Z,24.07
2017-03-31T11:10:43.759Z,24.29
2017-03-31T11:11:54.759Z,24.42
2017-03-31T11:13:05.771Z,24.48
2017-03-31T11:14:16.813Z,24.45
2017-03-31T11:15:27.817Z,24.32
2017-03-31T11:16:39.015Z,24.37
2017-03-31T11:17:50.022Z,24.32
2017-03-31T11:19:01.283Z,24.33
2017-03-31T11:20:12.288Z,24.12
2017-03-31T11:21:23.291Z,24.03
2017-03-31T11:22:34.295Z,23.99
2017-03-31T11:23:45.297Z,23.92
2017-03-31T11:24:56.505Z,23.85
2017-03-31T11:26:07.520Z,23.9
2017-03-31T11:27:18.528Z,23.84
2017-03-31T11:28:29.542Z,23.99
2017-03-31T11:29:40.995Z,23.85
2017-03-31T11:30:52.003Z,23.7
2017-03-31T11:32:03.212Z,23.66
2017-03-31T11:33:14.428Z,23.6
2017-03-31T11:34:25.454Z,23.82
2017-03-31T11:35:36.454Z,23.93
2017-03-31T11:36:47.498Z,23.87
2017-03-31T11:37:58.521Z,23.99
2017-03-31T11:39:09.722Z,24.02
2017-03-31T11:40:20.977Z,24.09
2017-03-31T11:41:32.189Z,24.08
2017-03-31T11:42:43.391Z,24.19
2017-03-31T11:43:54.397Z,24.37
2017-03-31T11:45:05.406Z,24.37
2017-03-31T11:46:16.415Z,24.4
2017-03-31T11:47:27.626Z,24.39
2017-03-31T11:48:38.634Z,24.51
2017-03-31T11:49:49.637Z,24.45
2017-03-31T11:51:00.645Z,24.51
2017-03-31T11:52:11.656Z,24.49
2017-03-31T11:53:22.679Z,24.48
2017-03-31T11:54:33.885Z,24.56
2017-03-31T11:55:44.896Z,24.59
2017-03-31T11:56:56.167Z,24.61
2017-03-31T11:58:07.174Z,24.78
2017-03-31T11:59:18.178Z,24.87
2017-03-31T12:00:29.188Z,24.94
2017-03-31T12:01:40.193Z,24.96
2017-03-31T12:02:51.196Z,25.07
2017-03-31T12:04:02.218Z,25.01
2017-03-31T12:05:13.224Z,25.04
2017-03-31T12:06:24.429Z,24.89
2017-03-31T12:07:35.693Z,24.94
2017-03-31T12:08:46.694Z,24.9
2017-03-31T12:09:57.708Z,24.77
2017-03-31T12:11:08.718Z,24.71
2017-03-31T12:12:19.927Z,24.74
2017-03-31T12:13:30.939Z,24.75
2017-03-31T12:14:41.955Z,24.77
2017-03-31T12:15:52.976Z,24.7
2017-03-31T12:17:03.984Z,24.86
2017-03-31T12:18:15.241Z,24.87
2017-03-31T12:19:26.247Z,25
2017-03-31T12:20:37.244Z,25.15
2017-03-31T12:21:48.262Z,25.32
2017-03-31T12:22:59.268Z,25.54
2017-03-31T12:24:10.471Z,25.6
2017-03-31T12:25:21.472Z,25.7
2017-03-31T12:26:32.484Z,25.79
2017-03-31T12:27:43.491Z,25.82
2017-03-31T12:28:54.701Z,25.88
2017-03-31T12:30:05.903Z,25.89
2017-03-31T12:31:16.920Z,25.86
2017-03-31T12:32:27.928Z,25.81
2017-03-31T12:33:38.949Z,25.79
2017-03-31T12:34:50.019Z,25.59
2017-03-31T12:36:01.428Z,25.59
2017-03-31T12:37:12.841Z,25.62
2017-03-31T12:38:24.054Z,25.37
2017-03-31T12:39:35.265Z,25.23
2017-03-31T12:40:46.277Z,25.33
2017-03-31T12:41:57.280Z,25.22
2017-03-31T12:43:08.297Z,25.3
2017-03-31T12:44:19.291Z,25.24
2017-03-31T12:45:30.578Z,25.12
2017-03-31T12:46:41.780Z,25.05
2017-03-31T12:47:52.785Z,25.15
2017-03-31T12:49:04.228Z,25.23
2017-03-31T12:50:15.239Z,25.33
2017-03-31T12:51:26.252Z,25.38
2017-03-31T12:52:37.256Z,25.45
2017-03-31T12:53:48.294Z,25.33
2017-03-31T12:54:59.298Z,25.3
2017-03-31T12:56:10.547Z,25.27
2017-03-31T12:57:21.558Z,25.33
2017-03-31T12:58:32.579Z,25.34
2017-03-31T12:59:43.593Z,25.45
2017-03-31T13:00:54.611Z,25.23
2017-03-31T13:02:05.621Z,25.14
2017-03-31T13:03:16.633Z,25.26
2017-03-31T13:04:27.631Z,25.07
2017-03-31T13:05:38.635Z,24.9
2017-03-31T13:06:49.644Z,24.96
2017-03-31T13:08:00.698Z,25.01
2017-03-31T13:09:11.699Z,25.09
2017-03-31T13:10:22.706Z,25.17
2017-03-31T13:11:33.721Z,25.34
2017-03-31T13:12:44.721Z,25.42
2017-03-31T13:13:55.925Z,25.47
2017-03-31T13:15:06.933Z,25.45
2017-03-31T13:16:17.945Z,25.48
2017-03-31T13:17:29.001Z,25.41
2017-03-31T13:18:40.202Z,25.32
2017-03-31T13:19:51.216Z,25.37
2017-03-31T13:21:02.228Z,25.24
2017-03-31T13:22:13.241Z,25.12
2017-03-31T13:23:24.248Z,25.2
2017-03-31T13:24:35.454Z,25.09
2017-03-31T13:25:46.661Z,24.89
2017-03-31T13:26:57.662Z,24.93
2017-03-31T13:28:09.122Z,24.89
2017-03-31T13:29:20.123Z,24.96
2017-03-31T13:30:31.335Z,25.02
2017-03-31T13:31:42.340Z,24.89
2017-03-31T13:32:53.548Z,24.75
2017-03-31T13:34:04.616Z,24.63
2017-03-31T13:35:15.614Z,24.49
2017-03-31T13:36:26.617Z,24.32
2017-03-31T13:37:37.624Z,24.27
2017-03-31T13:38:48.624Z,24.26
2017-03-31T13:39:59.628Z,24.14
2017-03-31T13:41:10.637Z,24.03
2017-03-31T13:42:21.647Z,24.11
2017-03-31T13:43:32.655Z,24.07
2017-03-31T13:44:43.656Z,24.02
2017-03-31T13:45:54.711Z,24.07
2017-03-31T13:47:05.711Z,24.07
2017-03-31T13:48:16.710Z,24.02
2017-03-31T13:49:27.906Z,24.12
2017-03-31T13:50:39.112Z,24.11
2017-03-31T13:51:50.111Z,24.12
2017-03-31T13:53:01.139Z,24.15
2017-03-31T13:54:12.157Z,24.14
2017-03-31T13:55:23.208Z,24.17
2017-03-31T13:56:34.211Z,24.19
2017-03-31T13:57:45.215Z,24.33
2017-03-31T13:58:56.423Z,24.42
2017-03-31T14:00:07.431Z,24.54
2017-03-31T14:01:18.437Z,24.61
2017-03-31T14:02:29.440Z,24.77
2017-03-31T14:03:40.443Z,24.75
2017-03-31T14:04:51.446Z,24.87
2017-03-31T14:06:02.708Z,24.75
2017-03-31T14:07:13.913Z,24.77
2017-03-31T14:08:24.923Z,24.93
2017-03-31T14:09:35.921Z,24.96
2017-03-31T14:10:46.919Z,25.04
2017-03-31T14:11:58.182Z,25.08
2017-03-31T14:13:09.185Z,25.05
2017-03-31T14:14:20.192Z,25.07
2017-03-31T14:15:31.390Z,24.96
2017-03-31T14:16:42.390Z,24.89
2017-03-31T14:17:53.405Z,24.86
2017-03-31T14:19:04.415Z,24.83
2017-03-31T14:20:15.411Z,24.75
2017-03-31T14:21:26.417Z,24.61
2017-03-31T14:22:37.419Z,24.59
2017-03-31T14:23:48.432Z,24.48
2017-03-31T14:24:59.434Z,24.61
2017-03-31T14:26:10.440Z,24.64
2017-03-31T14:27:21.640Z,24.59
2017-03-31T14:28:32.892Z,24.64
2017-03-31T14:29:44.130Z,24.55
2017-03-31T14:30:55.145Z,24.55
2017-03-31T14:32:06.152Z,24.55
2017-03-31T14:33:17.164Z,24.54
2017-03-31T14:34:28.364Z,24.56
2017-03-31T14:35:39.372Z,24.61
2017-03-31T14:36:50.375Z,24.74
2017-03-31T14:38:01.383Z,24.63
2017-03-31T14:39:12.643Z,24.83
2017-03-31T14:40:23.846Z,24.89
2017-03-31T14:41:34.847Z,24.93
2017-03-31T14:42:45.857Z,24.9
2017-03-31T14:43:56.865Z,24.9
2017-03-31T14:45:07.868Z,24.9
2017-03-31T14:46:18.874Z,24.89
2017-03-31T14:47:29.875Z,24.89
2017-03-31T14:48:40.896Z,24.93
2017-03-31T14:49:52.147Z,24.9
2017-03-31T14:51:03.162Z,24.9
2017-03-31T14:52:14.174Z,24.9
2017-03-31T14:53:25.187Z,24.9
2017-03-31T14:54:36.397Z,24.87
2017-03-31T14:55:47.391Z,24.87
2017-03-31T14:56:58.409Z,24.69
2017-03-31T14:58:09.413Z,24.7
2017-03-31T14:59:20.416Z,24.87
2017-03-31T15:00:31.420Z,24.74
2017-03-31T15:01:42.418Z,24.74
2017-03-31T15:02:53.417Z,24.74
2017-03-31T15:04:04.618Z,24.77
2017-03-31T15:05:15.625Z,24.7
2017-03-31T15:06:26.878Z,24.74
2017-03-31T15:07:38.081Z,24.69
2017-03-31T15:08:49.081Z,24.75
2017-03-31T15:10:00.078Z,24.67
2017-03-31T15:11:11.080Z,24.69
2017-03-31T15:12:22.076Z,24.71
2017-03-31T15:13:33.081Z,24.74
2017-03-31T15:14:44.084Z,24.77
2017-03-31T15:15:55.087Z,24.85
2017-03-31T15:17:06.553Z,24.87
2017-03-31T15:18:17.547Z,24.8
2017-03-31T15:19:28.553Z,24.66
2017-03-31T15:20:39.561Z,24.77
2017-03-31T15:21:50.565Z,24.75
2017-03-31T15:23:01.568Z,24.63
2017-03-31T15:24:12.574Z,24.58